Time;durP1;ratioP1;P1;durP2;ratioP2;P2;SDS_P1;SDS_P2;PMS_P1;PMS_P2;Temp;Humidity;BMP_temperature;BMP_pressure;BME280_temperature;BME280_humidity;BME280_pressure;Samples;Min_cycle;Max_cycle;Signal;HPM_P1;HPM_P2
2024/04/16 00:01:46;;;;;;;4.40;0.90;;;6.90;99.90;;;;;;7302657;19;20309;-80
2024/04/16 00:04:12;;;;;;;7.73;1.40;;;6.90;99.90;;;;;;7288442;19;20269;-81
2024/04/16 00:06:38;;;;;;;8.17;1.33;;;6.90;99.90;;;;;;7288182;19;20198;-80
2024/04/16 00:09:04;;;;;;;4.83;1.40;;;6.80;99.90;;;;;;7287440;19;20198;-81
2024/04/16 00:11:30;;;;;;;5.70;1.80;;;6.80;99.90;;;;;;7286900;19;20206;-81
2024/04/16 00:13:55;;;;;;;8.47;1.60;;;6.80;99.90;;;;;;7288945;19;20223;-81
2024/04/16 00:16:37;;;;;;;7.23;1.57;;;6.70;99.90;;;;;;7288181;19;20193;-81
2024/04/16 00:19:03;;;;;;;7.77;2.13;;;6.80;99.90;;;;;;7287354;19;20551;-81
2024/04/16 00:21:29;;;;;;;10.00;1.60;;;6.90;99.90;;;;;;7287686;19;20692;-81
2024/04/16 00:23:55;;;;;;;11.27;2.30;;;7.00;99.90;;;;;;7286590;19;20190;-80
2024/04/16 00:26:20;;;;;;;12.37;2.00;;;7.10;99.90;;;;;;7302981;19;20194;-80
2024/04/16 00:28:46;;;;;;;10.50;2.23;;;7.30;99.90;;;;;;7300303;19;20676;-80
2024/04/16 00:31:12;;;;;;;8.60;1.80;;;7.40;99.90;;;;;;7287620;19;20960;-80
2024/04/16 00:33:38;;;;;;;16.07;2.07;;;7.50;99.90;;;;;;7286578;19;20197;-81
2024/04/16 00:36:04;;;;;;;9.87;1.90;;;7.60;99.90;;;;;;7286306;19;20200;-81
2024/04/16 00:38:30;;;;;;;12.23;1.83;;;7.60;99.90;;;;;;7286850;19;20211;-80
2024/04/16 00:40:56;;;;;;;10.63;2.00;;;7.60;99.90;;;;;;7286348;19;20190;-81
2024/04/16 00:43:22;;;;;;;9.70;1.87;;;7.70;99.90;;;;;;7291165;19;20195;-80
2024/04/16 00:45:51;;;;;;;12.93;2.00;;;7.60;99.90;;;;;;7309870;19;20197;-80
2024/04/16 00:48:18;;;;;;;12.90;2.00;;;7.60;99.90;;;;;;7286920;19;20191;-81
2024/04/16 00:50:46;;;;;;;10.23;1.77;;;7.70;99.90;;;;;;7286288;19;20633;-80
2024/04/16 00:53:13;;;;;;;10.33;1.90;;;7.80;99.90;;;;;;7287048;19;20217;-81
2024/04/16 00:55:39;;;;;;;13.93;1.80;;;8.00;99.90;;;;;;7287826;19;20192;-80
2024/04/16 00:58:08;;;;;;;13.10;1.93;;;8.00;99.90;;;;;;7287652;19;20657;-81
2024/04/16 01:00:33;;;;;;;11.37;1.97;;;8.00;99.90;;;;;;7286728;19;20198;-81
2024/04/16 01:02:59;;;;;;;13.17;1.90;;;8.00;99.90;;;;;;7287058;19;20620;-81
2024/04/16 01:05:26;;;;;;;12.10;1.90;;;8.10;99.90;;;;;;7284578;19;20884;-80
2024/04/16 01:07:53;;;;;;;16.63;1.80;;;8.20;99.90;;;;;;7289942;19;20224;-80
2024/04/16 01:10:19;;;;;;;13.03;1.80;;;8.20;99.90;;;;;;7309497;19;20238;-81
2024/04/16 01:12:44;;;;;;;6.97;1.67;;;8.30;99.90;;;;;;7286144;19;20178;-81
2024/04/16 01:15:10;;;;;;;10.87;1.73;;;8.30;99.90;;;;;;7286840;19;20320;-81
2024/04/16 01:17:39;;;;;;;12.87;1.57;;;8.30;99.90;;;;;;7287162;19;20182;-81
2024/04/16 01:20:06;;;;;;;11.67;1.70;;;8.30;99.90;;;;;;7286408;19;20187;-81
2024/04/16 01:22:32;;;;;;;11.30;1.93;;;8.20;99.90;;;;;;7286393;19;20209;-81
2024/04/16 01:24:58;;;;;;;10.83;1.90;;;8.30;99.90;;;;;;7285705;19;20206;-81
2024/04/16 01:27:23;;;;;;;15.27;2.20;;;8.30;99.90;;;;;;7285411;19;20187;-80
2024/04/16 01:29:49;;;;;;;11.73;1.70;;;8.40;99.90;;;;;;7308176;19;20211;-81
2024/04/16 01:32:15;;;;;;;9.23;1.83;;;8.30;99.90;;;;;;7287368;19;20183;-81
2024/04/16 01:34:41;;;;;;;11.57;1.70;;;8.20;99.90;;;;;;7283412;19;20734;-81
2024/04/16 01:37:07;;;;;;;14.60;1.70;;;8.20;99.90;;;;;;7286265;19;20196;-80
2024/04/16 01:39:33;;;;;;;8.10;1.80;;;8.20;99.90;;;;;;7284916;19;20549;-81
2024/04/16 01:42:00;;;;;;;15.23;2.10;;;8.20;99.90;;;;;;7284746;19;20222;-81
2024/04/16 01:44:25;;;;;;;12.73;1.73;;;8.30;99.90;;;;;;7286013;19;20286;-81
2024/04/16 01:46:51;;;;;;;13.67;1.80;;;8.40;99.90;;;;;;7297512;19;20181;-82
2024/04/16 01:49:17;;;;;;;10.87;1.87;;;8.40;99.90;;;;;;7306351;19;20712;-82
2024/04/16 01:51:43;;;;;;;13.03;1.77;;;8.40;99.90;;;;;;7286259;19;20198;-81
2024/04/16 01:54:09;;;;;;;12.37;1.90;;;8.50;99.90;;;;;;7285337;19;20647;-81
2024/04/16 01:56:35;;;;;;;18.27;2.17;;;8.60;99.90;;;;;;7286612;19;20196;-81
2024/04/16 01:59:02;;;;;;;16.67;2.67;;;8.60;99.90;;;;;;7285981;19;20252;-81
2024/04/16 02:01:27;;;;;;;15.30;1.77;;;8.60;99.90;;;;;;7285362;19;20293;-80
2024/04/16 02:03:53;;;;;;;14.80;1.87;;;8.60;99.90;;;;;;7283381;19;20181;-80
2024/04/16 02:06:19;;;;;;;9.80;1.57;;;8.70;99.90;;;;;;7306669;19;20203;-82
2024/04/16 02:08:45;;;;;;;11.50;1.87;;;8.70;99.90;;;;;;7284561;19;20280;-81
2024/04/16 02:11:10;;;;;;;10.90;1.97;;;8.60;99.90;;;;;;7285294;19;20202;-81
2024/04/16 02:13:36;;;;;;;13.07;2.20;;;8.60;99.90;;;;;;7284252;19;20214;-80
2024/04/16 02:16:02;;;;;;;11.67;1.60;;;8.70;99.90;;;;;;7285325;19;20522;-81
2024/04/16 02:18:28;;;;;;;11.37;1.60;;;8.70;99.90;;;;;;7284430;19;20300;-81
2024/04/16 02:20:54;;;;;;;8.03;1.80;;;8.70;99.90;;;;;;7284959;19;20660;-81
2024/04/16 02:23:20;;;;;;;14.63;1.97;;;8.70;99.90;;;;;;7307247;19;20188;-81
2024/04/16 02:25:46;;;;;;;9.40;1.60;;;8.70;99.90;;;;;;7284935;19;20561;-81
2024/04/16 02:28:12;;;;;;;9.47;1.63;;;8.80;99.90;;;;;;7284932;19;20222;-80
2024/04/16 02:30:38;;;;;;;14.10;1.80;;;8.70;99.90;;;;;;7284527;19;20186;-81
2024/04/16 02:33:04;;;;;;;9.17;1.50;;;8.70;99.90;;;;;;7284841;19;20214;-80
2024/04/16 02:35:32;;;;;;;10.17;1.70;;;8.70;99.90;;;;;;7282584;19;20192;-81
2024/04/16 02:37:58;;;;;;;14.00;1.53;;;8.70;99.90;;;;;;7285106;19;20191;-81
2024/04/16 02:40:24;;;;;;;10.47;1.50;;;8.70;99.90;;;;;;7284488;19;20288;-81
2024/04/16 02:42:49;;;;;;;8.77;1.47;;;8.60;99.90;;;;;;7306647;19;20206;-81
2024/04/16 02:45:15;;;;;;;8.07;1.20;;;8.70;99.90;;;;;;7288072;19;20190;-80
2024/04/16 02:47:41;;;;;;;4.93;1.40;;;8.70;99.90;;;;;;7298405;19;20176;-81
2024/04/16 02:50:07;;;;;;;12.17;1.40;;;8.60;99.90;;;;;;7298425;19;20184;-81
2024/04/16 02:52:36;;;;;;;8.03;1.30;;;8.60;99.90;;;;;;7296870;19;20189;-80
2024/04/16 02:55:02;;;;;;;6.13;1.40;;;8.70;99.90;;;;;;7297850;19;20192;-80
2024/04/16 02:57:28;;;;;;;7.07;1.30;;;8.70;99.90;;;;;;7297326;19;20187;-80
2024/04/16 02:59:54;;;;;;;8.97;1.50;;;8.80;99.90;;;;;;7296339;19;20301;-81
2024/04/16 03:02:19;;;;;;;8.37;1.43;;;8.90;99.90;;;;;;7318016;19;20207;-80
2024/04/16 03:04:48;;;;;;;9.60;1.60;;;8.90;99.90;;;;;;7297760;19;20190;-81
2024/04/16 03:07:14;;;;;;;9.13;1.40;;;8.80;99.90;;;;;;7297393;19;20556;-81
2024/04/16 03:09:40;;;;;;;5.50;1.20;;;8.80;99.90;;;;;;7298397;19;20183;-80
2024/04/16 03:12:06;;;;;;;8.13;1.40;;;8.80;99.90;;;;;;7297217;19;20535;-81
2024/04/16 03:14:32;;;;;;;7.13;1.27;;;8.80;99.90;;;;;;7297077;19;20215;-80
2024/04/16 03:16:59;;;;;;;8.97;1.67;;;8.80;99.90;;;;;;7296648;19;20196;-81
2024/04/16 03:19:25;;;;;;;7.70;1.30;;;8.80;99.90;;;;;;7296302;19;20201;-81
2024/04/16 03:21:51;;;;;;;7.83;1.37;;;8.80;99.90;;;;;;7312202;19;20756;-79
2024/04/16 03:24:17;;;;;;;9.57;1.40;;;8.70;99.90;;;;;;7310567;19;20189;-80
2024/04/16 03:26:43;;;;;;;11.33;1.60;;;8.70;99.90;;;;;;7296819;19;20974;-81
2024/04/16 03:29:09;;;;;;;9.03;1.83;;;8.80;99.90;;;;;;7297755;19;20200;-80
2024/04/16 03:31:34;;;;;;;12.13;1.67;;;8.80;99.90;;;;;;7297867;19;20188;-81
2024/04/16 03:34:00;;;;;;;7.03;1.13;;;8.70;99.90;;;;;;7298620;19;20192;-81
2024/04/16 03:36:26;;;;;;;14.17;1.80;;;8.60;99.90;;;;;;7300196;19;20267;-81
2024/04/16 03:38:51;;;;;;;7.40;1.23;;;8.60;99.90;;;;;;7305907;19;20290;-80
2024/04/16 03:41:17;;;;;;;9.10;1.70;;;8.60;99.90;;;;;;7316258;19;20199;-81
2024/04/16 03:43:43;;;;;;;8.87;1.77;;;8.60;99.90;;;;;;7296733;19;20191;-82
2024/04/16 03:46:09;;;;;;;12.73;1.90;;;8.50;99.90;;;;;;7296366;19;20214;-80
2024/04/16 03:48:34;;;;;;;11.27;1.53;;;8.50;99.90;;;;;;7298219;19;20197;-81
2024/04/16 03:51:00;;;;;;;9.20;1.83;;;8.50;99.90;;;;;;7296523;19;20191;-81
2024/04/16 03:53:26;;;;;;;10.27;1.60;;;8.70;99.90;;;;;;7296275;19;20213;-81
2024/04/16 03:55:51;;;;;;;13.20;1.73;;;8.70;99.90;;;;;;7307509;19;20184;-80
2024/04/16 03:58:17;;;;;;;10.33;1.30;;;8.70;99.90;;;;;;7308758;19;20878;-81
2024/04/16 04:03:28;;;;;;;9.10;1.70;;;8.80;99.90;;;;;;7186407;19;2004390;-81
2024/04/16 04:05:54;;;;;;;13.33;1.60;;;8.80;99.90;;;;;;7287819;19;20655;-80
2024/04/16 04:08:20;;;;;;;10.77;1.90;;;8.80;99.90;;;;;;7312375;19;20214;-81
2024/04/16 04:10:46;;;;;;;12.60;1.40;;;8.90;99.90;;;;;;7290344;19;20177;-81
2024/04/16 04:13:12;;;;;;;10.27;1.43;;;8.90;99.90;;;;;;7289054;19;20251;-81
2024/04/16 04:15:38;;;;;;;8.67;1.70;;;8.90;99.90;;;;;;7288951;19;20185;-81
2024/04/16 04:18:05;;;;;;;12.23;1.70;;;8.90;99.90;;;;;;7287266;19;20677;-82
2024/04/16 04:20:31;;;;;;;11.03;1.73;;;8.90;99.90;;;;;;7286347;19;20207;-80
2024/04/16 04:22:56;;;;;;;9.30;1.83;;;9.00;99.90;;;;;;7288482;19;20671;-82
2024/04/16 04:25:22;;;;;;;8.17;1.60;;;8.90;99.90;;;;;;7289306;19;20192;-80
2024/04/16 04:27:49;;;;;;;9.93;1.67;;;8.70;99.90;;;;;;7308617;19;20234;-81
2024/04/16 04:30:14;;;;;;;12.33;2.27;;;8.50;99.90;;;;;;7285984;19;20188;-81
2024/04/16 04:32:40;;;;;;;12.17;2.20;;;8.50;99.90;;;;;;7284784;19;20329;-81
2024/04/16 04:35:09;;;;;;;14.73;2.53;;;8.50;99.90;;;;;;7288877;19;20578;-81
2024/04/16 04:37:34;;;;;;;8.53;1.97;;;8.50;99.90;;;;;;7286116;19;20199;-81
2024/04/16 04:40:00;;;;;;;13.90;2.83;;;8.70;99.90;;;;;;7288134;19;20185;-81
2024/04/16 04:42:26;;;;;;;9.93;2.40;;;8.80;99.90;;;;;;7286484;19;20189;-81
2024/04/16 04:44:53;;;;;;;17.43;2.57;;;8.90;99.90;;;;;;7296113;19;22230;-79
2024/04/16 04:47:21;;;;;;;9.80;2.10;;;9.00;99.90;;;;;;7309886;19;20537;-80
2024/04/16 04:49:47;;;;;;;11.80;2.53;;;8.90;99.90;;;;;;7288028;19;20214;-81
2024/04/16 04:52:13;;;;;;;8.90;2.00;;;8.90;99.90;;;;;;7286328;19;20196;-80
2024/04/16 04:54:39;;;;;;;12.90;2.00;;;8.80;99.90;;;;;;7286846;19;20306;-81
2024/04/16 04:57:05;;;;;;;13.80;2.50;;;8.80;99.90;;;;;;7286515;19;20210;-80
2024/04/16 04:59:31;;;;;;;11.03;2.67;;;8.70;99.90;;;;;;7288114;19;20272;-81
2024/04/16 05:01:58;;;;;;;9.17;2.60;;;8.70;99.90;;;;;;7287933;19;20188;-81
2024/04/16 05:04:23;;;;;;;11.80;2.43;;;8.70;99.90;;;;;;7287354;19;20200;-81
2024/04/16 05:06:49;;;;;;;9.80;2.43;;;8.70;99.90;;;;;;7308039;19;20247;-80
2024/04/16 05:09:15;;;;;;;9.83;2.77;;;8.50;99.90;;;;;;7288522;19;20261;-80
2024/04/16 05:11:40;;;;;;;8.33;2.60;;;8.50;99.90;;;;;;7285986;19;20210;-80
2024/04/16 05:14:09;;;;;;;7.33;2.33;;;8.50;99.90;;;;;;7286235;19;20202;-80
2024/04/16 05:16:38;;;;;;;14.03;2.87;;;8.50;99.90;;;;;;7287062;19;20785;-79
2024/04/16 05:19:04;;;;;;;14.03;3.17;;;8.50;99.90;;;;;;7286441;19;20191;-80
2024/04/16 05:21:31;;;;;;;12.43;3.10;;;8.40;99.90;;;;;;7286920;19;20677;-81
2024/04/16 05:23:57;;;;;;;10.57;2.60;;;8.50;99.90;;;;;;7285982;19;20266;-82
2024/04/16 05:26:23;;;;;;;9.10;2.70;;;8.50;99.90;;;;;;7289371;19;20655;-82
2024/04/16 05:28:51;;;;;;;13.27;2.60;;;8.50;99.90;;;;;;7309109;19;20192;-82
2024/04/16 05:31:17;;;;;;;9.80;2.43;;;8.40;99.90;;;;;;7286201;19;20218;-82
2024/04/16 05:33:43;;;;;;;9.03;2.20;;;8.40;99.90;;;;;;7285990;19;20683;-82
2024/04/16 05:36:09;;;;;;;8.33;2.40;;;8.50;99.90;;;;;;7285816;19;20256;-82
2024/04/16 05:38:35;;;;;;;11.57;2.10;;;8.50;99.90;;;;;;7285403;19;20550;-81
2024/04/16 05:41:02;;;;;;;9.67;2.20;;;8.40;99.90;;;;;;7286061;19;20191;-82
2024/04/16 05:43:28;;;;;;;9.57;2.90;;;8.50;99.90;;;;;;7285334;19;20203;-82
2024/04/16 05:45:54;;;;;;;9.90;3.13;;;8.50;99.90;;;;;;7283603;19;20185;-82
2024/04/16 05:48:20;;;;;;;10.73;2.57;;;8.40;99.90;;;;;;7307508;19;20562;-84
2024/04/16 05:50:46;;;;;;;11.77;2.90;;;8.40;99.90;;;;;;7286763;19;20624;-83
2024/04/16 05:53:11;;;;;;;10.53;2.60;;;8.50;99.90;;;;;;7287103;19;20180;-82
2024/04/16 05:55:37;;;;;;;12.53;3.07;;;8.40;99.90;;;;;;7285478;19;20221;-81
2024/04/16 05:58:03;;;;;;;12.20;2.60;;;8.50;99.90;;;;;;7284051;19;20216;-82
2024/04/16 06:00:29;;;;;;;11.07;2.37;;;8.40;99.90;;;;;;7285991;19;20239;-81
2024/04/16 06:02:55;;;;;;;10.10;2.67;;;8.30;99.90;;;;;;7285546;19;20275;-82
2024/04/16 06:05:21;;;;;;;6.47;2.43;;;8.30;99.90;;;;;;7306003;19;20187;-82
2024/04/16 06:07:47;;;;;;;6.60;2.70;;;8.30;99.90;;;;;;7286103;19;20185;-82
2024/04/16 06:10:13;;;;;;;13.67;2.57;;;8.20;99.90;;;;;;7285174;19;20191;-82
2024/04/16 06:12:38;;;;;;;12.80;2.97;;;8.20;99.90;;;;;;7281944;19;20198;-82
2024/04/16 06:15:05;;;;;;;10.70;2.83;;;8.30;99.90;;;;;;7283945;19;20202;-82
2024/04/16 06:17:30;;;;;;;9.60;2.70;;;8.40;99.90;;;;;;7284700;19;20180;-82
2024/04/16 06:19:56;;;;;;;12.43;2.97;;;8.50;99.90;;;;;;7283130;19;20186;-81
2024/04/16 06:22:22;;;;;;;11.67;3.00;;;8.60;99.90;;;;;;7296113;19;20268;-80
2024/04/16 06:24:47;;;;;;;8.60;2.70;;;8.60;99.90;;;;;;7300349;19;20177;-81
2024/04/16 06:27:13;;;;;;;11.60;2.77;;;8.70;99.90;;;;;;7284876;19;20202;-82
2024/04/16 06:29:39;;;;;;;10.60;2.37;;;8.70;99.90;;;;;;7283295;19;20189;-82
2024/04/16 06:32:05;;;;;;;8.90;2.27;;;8.50;99.90;;;;;;7284053;19;20214;-82
2024/04/16 06:34:31;;;;;;;9.37;2.40;;;8.50;99.90;;;;;;7283037;19;20195;-81
2024/04/16 06:36:57;;;;;;;14.63;2.67;;;8.40;99.90;;;;;;7284073;19;20187;-82
2024/04/16 06:39:23;;;;;;;12.27;2.70;;;8.40;99.90;;;;;;7282381;19;20218;-81
2024/04/16 06:41:49;;;;;;;8.10;2.40;;;8.40;99.90;;;;;;7306758;19;20667;-81
2024/04/16 06:44:15;;;;;;;9.23;2.50;;;8.40;99.90;;;;;;7282688;19;20188;-83
2024/04/16 06:46:41;;;;;;;11.63;2.30;;;8.60;99.90;;;;;;7284597;19;20554;-82
2024/04/16 06:49:07;;;;;;;15.67;2.60;;;8.60;99.90;;;;;;7282756;19;20195;-82
2024/04/16 06:51:33;;;;;;;11.77;2.37;;;8.70;99.90;;;;;;7282795;19;20222;-82
2024/04/16 06:53:58;;;;;;;14.57;2.37;;;8.70;99.90;;;;;;7283814;19;20677;-82
2024/04/16 06:56:24;;;;;;;10.70;1.90;;;8.80;99.90;;;;;;7282786;19;20217;-81
2024/04/16 06:58:50;;;;;;;13.30;2.50;;;8.90;99.90;;;;;;7304541;19;20192;-81
2024/04/16 07:01:16;;;;;;;9.77;2.03;;;9.00;99.90;;;;;;7285374;19;20607;-81
2024/04/16 07:03:42;;;;;;;9.60;2.37;;;9.00;99.90;;;;;;7284741;19;20182;-82
2024/04/16 07:06:08;;;;;;;13.10;2.50;;;9.10;99.90;;;;;;7282074;19;20207;-81
2024/04/16 07:08:34;;;;;;;10.97;2.03;;;9.10;99.90;;;;;;7284001;19;20199;-82
2024/04/16 07:11:00;;;;;;;10.97;2.17;;;9.20;99.90;;;;;;7282857;19;20185;-82
2024/04/16 07:13:27;;;;;;;13.03;2.03;;;9.30;99.90;;;;;;7282300;19;20246;-81
2024/04/16 07:15:53;;;;;;;9.03;2.07;;;9.40;99.90;;;;;;7280436;19;20184;-82
2024/04/16 07:18:19;;;;;;;10.40;2.17;;;9.50;99.90;;;;;;7304579;19;20267;-82
2024/04/16 07:20:48;;;;;;;12.77;2.00;;;9.50;99.90;;;;;;7284215;19;20293;-82
2024/04/16 07:23:15;;;;;;;12.77;1.83;;;9.60;99.90;;;;;;7283428;19;20185;-82
2024/04/16 07:25:44;;;;;;;9.73;2.17;;;9.60;99.90;;;;;;7284063;19;20196;-82
2024/04/16 07:28:13;;;;;;;11.70;2.40;;;9.70;99.90;;;;;;7283487;19;20333;-82
2024/04/16 07:30:41;;;;;;;10.90;1.80;;;9.70;99.90;;;;;;7280574;19;20305;-82
2024/04/16 07:33:07;;;;;;;8.73;1.50;;;9.80;99.90;;;;;;7286943;19;20188;-82
2024/04/16 07:35:33;;;;;;;9.47;1.60;;;9.90;99.90;;;;;;7288528;19;20215;-82
2024/04/16 07:38:00;;;;;;;11.97;1.97;;;9.90;99.90;;;;;;7288229;19;20196;-82
2024/04/16 07:40:26;;;;;;;12.80;1.70;;;9.90;99.90;;;;;;7291001;19;20200;-82
2024/04/16 07:42:52;;;;;;;13.40;1.87;;;9.80;99.90;;;;;;7306978;19;20194;-81
2024/04/16 07:45:18;;;;;;;9.17;1.50;;;9.90;99.90;;;;;;7310655;19;20185;-81
2024/04/16 07:47:44;;;;;;;10.30;1.43;;;9.90;99.90;;;;;;7291738;19;20679;-82
2024/04/16 07:50:10;;;;;;;10.97;1.90;;;9.90;99.90;;;;;;7289595;19;20192;-81
2024/04/16 07:52:35;;;;;;;10.83;2.27;;;10.00;99.90;;;;;;7290174;19;20197;-81
2024/04/16 07:55:01;;;;;;;11.33;1.60;;;10.10;99.90;;;;;;7291010;19;20281;-82
2024/04/16 07:57:27;;;;;;;7.80;1.60;;;10.10;99.90;;;;;;7286952;19;20184;-82
2024/04/16 07:59:53;;;;;;;10.57;1.90;;;10.00;99.90;;;;;;7290797;19;20654;-81
2024/04/16 08:02:19;;;;;;;7.63;1.70;;;10.10;99.90;;;;;;7312026;19;20192;-81
2024/04/16 08:04:45;;;;;;;9.47;1.73;;;10.10;99.90;;;;;;7289172;19;20314;-82
2024/04/16 08:07:10;;;;;;;12.10;2.00;;;10.10;99.90;;;;;;7289533;19;20273;-82
2024/04/16 08:09:37;;;;;;;9.00;1.63;;;10.10;99.90;;;;;;7289183;19;20193;-82
2024/04/16 08:12:03;;;;;;;9.13;1.80;;;10.10;99.90;;;;;;7288689;19;20218;-82
2024/04/16 08:14:29;;;;;;;11.07;1.53;;;10.20;99.90;;;;;;7289223;19;20213;-81
2024/04/16 08:16:54;;;;;;;10.37;1.80;;;10.20;99.90;;;;;;7288792;19;20181;-82
2024/04/16 08:19:20;;;;;;;11.97;1.63;;;10.10;99.90;;;;;;7309505;19;20248;-82
2024/04/16 08:21:46;;;;;;;8.67;1.80;;;10.20;99.90;;;;;;7287979;19;20198;-82
2024/04/16 08:24:13;;;;;;;12.97;2.13;;;10.30;99.90;;;;;;7287401;19;20206;-82
2024/04/16 08:26:39;;;;;;;11.03;1.70;;;10.40;99.90;;;;;;7291030;19;20200;-82
2024/04/16 08:29:04;;;;;;;10.20;1.87;;;10.40;99.90;;;;;;7288207;19;20201;-82
2024/04/16 08:31:30;;;;;;;8.73;1.63;;;10.20;99.90;;;;;;7286853;19;20189;-82
2024/04/16 08:33:58;;;;;;;10.33;1.70;;;10.20;99.90;;;;;;7288271;19;20181;-81
2024/04/16 08:36:24;;;;;;;10.93;1.67;;;10.20;99.90;;;;;;7287774;19;20185;-81
2024/04/16 08:38:50;;;;;;;10.77;1.97;;;10.30;99.90;;;;;;7308820;19;20253;-82
2024/04/16 08:41:16;;;;;;;10.13;2.10;;;10.30;99.90;;;;;;7288805;19;20228;-81
2024/04/16 08:43:44;;;;;;;9.97;1.90;;;10.30;99.90;;;;;;7286187;19;20217;-82
2024/04/16 08:46:11;;;;;;;14.70;2.17;;;10.30;99.90;;;;;;7286817;19;20198;-82
2024/04/16 08:48:40;;;;;;;13.63;2.17;;;10.30;99.90;;;;;;7287461;19;21145;-81
2024/04/16 08:51:08;;;;;;;9.50;1.80;;;10.40;99.90;;;;;;7286922;19;20202;-82
2024/04/16 08:53:35;;;;;;;10.87;1.30;;;10.70;99.90;;;;;;7290116;19;20219;-82
2024/04/16 08:56:02;;;;;;;8.90;1.37;;;10.90;99.90;;;;;;7287369;19;20189;-82
2024/04/16 08:58:28;;;;;;;7.87;1.40;;;10.90;99.90;;;;;;7287018;19;20208;-82
2024/04/16 09:00:56;;;;;;;7.17;1.60;;;10.60;99.90;;;;;;7286207;19;20204;-81
2024/04/16 09:03:25;;;;;;;15.00;1.60;;;10.70;99.90;;;;;;7299246;19;20195;-81
2024/04/16 09:05:50;;;;;;;9.30;1.50;;;10.70;99.90;;;;;;7310746;19;20189;-82
2024/04/16 09:08:16;;;;;;;4.63;1.20;;;10.60;99.90;;;;;;7287301;19;20196;-82
2024/04/16 09:10:43;;;;;;;5.07;1.20;;;10.50;99.90;;;;;;7286837;19;20223;-82
2024/04/16 09:13:12;;;;;;;6.20;1.30;;;10.50;99.90;;;;;;7290598;19;20185;-82
2024/04/16 09:15:39;;;;;;;7.87;1.53;;;10.70;99.90;;;;;;7286753;19;20202;-82
2024/04/16 09:18:05;;;;;;;6.20;1.47;;;10.70;99.90;;;;;;7287837;19;20196;-82
2024/04/16 09:20:31;;;;;;;10.50;1.57;;;10.60;99.90;;;;;;7289193;19;20181;-82
2024/04/16 09:22:57;;;;;;;9.57;1.70;;;10.80;99.90;;;;;;7284891;19;20197;-82
2024/04/16 09:25:24;;;;;;;7.70;1.50;;;10.80;99.90;;;;;;7294952;19;20269;-82
2024/04/16 09:27:55;;;;;;;6.30;1.53;;;10.90;99.90;;;;;;7309074;19;20211;-82
2024/04/16 09:30:22;;;;;;;6.77;1.10;;;11.00;99.90;;;;;;7286323;19;20208;-82
2024/04/16 09:33:02;;;;;;;8.73;1.63;;;10.80;99.90;;;;;;7286922;19;20199;-82
2024/04/16 09:35:30;;;;;;;6.00;1.40;;;11.00;99.90;;;;;;7182491;19;2004782;-81
2024/04/16 09:38:03;;;;;;;11.03;1.50;;;10.80;99.90;;;;;;7284471;19;20196;-80
2024/04/16 09:40:30;;;;;;;7.60;1.53;;;10.80;99.90;;;;;;7283736;19;20195;-82
2024/04/16 09:42:59;;;;;;;6.70;1.30;;;10.90;99.90;;;;;;7284059;19;20199;-82
2024/04/16 09:45:25;;;;;;;4.20;1.00;;;11.00;99.90;;;;;;7286612;19;20194;-82
2024/04/16 09:47:53;;;;;;;7.93;1.50;;;10.90;99.90;;;;;;7308631;19;20210;-83
2024/04/16 09:50:20;;;;;;;9.07;1.33;;;10.80;99.90;;;;;;7285938;19;20193;-83
2024/04/16 09:52:51;;;;;;;8.30;1.27;;;10.80;99.90;;;;;;7286527;19;20190;-83
2024/04/16 09:55:19;;;;;;;5.30;1.43;;;10.80;99.90;;;;;;7285254;19;20252;-83
2024/04/16 09:57:47;;;;;;;3.97;1.30;;;10.90;99.90;;;;;;7286803;19;20213;-83
2024/04/16 10:00:14;;;;;;;10.70;1.40;;;11.00;99.90;;;;;;7286095;19;20225;-83
2024/04/16 10:02:42;;;;;;;7.13;1.70;;;11.00;99.90;;;;;;7285066;19;20209;-83
2024/04/16 10:05:10;;;;;;;6.83;1.60;;;10.90;99.90;;;;;;7285877;19;20188;-82
2024/04/16 10:07:38;;;;;;;8.10;1.43;;;10.80;99.90;;;;;;7285245;19;20203;-82
2024/04/16 10:10:05;;;;;;;10.03;1.70;;;10.70;99.90;;;;;;7283533;19;20181;-83
2024/04/16 10:12:33;;;;;;;7.50;1.70;;;10.50;99.90;;;;;;7285513;19;20624;-83
2024/04/16 10:15:00;;;;;;;6.90;1.60;;;10.50;99.90;;;;;;7283458;19;20311;-82
2024/04/16 10:17:26;;;;;;;7.43;1.80;;;10.40;99.90;;;;;;7284429;19;20189;-82
2024/04/16 10:19:52;;;;;;;6.77;1.67;;;10.30;99.90;;;;;;7307170;19;20277;-82
2024/04/16 10:22:18;;;;;;;10.03;1.90;;;10.40;99.90;;;;;;7285136;19;20188;-82
2024/04/16 10:24:53;;;;;;;7.27;1.73;;;10.70;99.90;;;;;;7284642;19;20223;-82
2024/04/16 10:27:25;;;;;;;7.70;1.60;;;11.30;99.90;;;;;;7286105;19;20189;-83
2024/04/16 10:30:11;;;;;;;6.50;1.20;;;12.20;99.90;;;;;;7284823;19;20210;-83
2024/04/16 10:33:04;;;;;;;6.10;1.20;;;13.30;99.90;;;;;;7182808;19;2004410;-83
2024/04/16 10:35:33;;;;;;;9.90;1.30;;;13.50;99.90;;;;;;7180080;19;2006230;-81
2024/04/16 10:38:01;;;;;;;5.67;1.50;;;13.30;99.90;;;;;;7282323;19;20206;-82
2024/04/16 10:40:29;;;;;;;8.50;1.77;;;13.30;99.90;;;;;;7284511;19;20658;-82
2024/04/16 10:42:59;;;;;;;7.87;1.70;;;13.10;99.90;;;;;;7283891;19;20262;-82
2024/04/16 10:45:25;;;;;;;6.73;1.27;;;12.50;99.90;;;;;;7282377;19;20251;-81
2024/04/16 10:47:52;;;;;;;6.77;1.20;;;11.70;99.90;;;;;;7306819;19;20608;-82
2024/04/16 10:50:18;;;;;;;7.33;1.50;;;11.50;99.90;;;;;;7282374;19;20187;-82
2024/04/16 10:52:44;;;;;;;8.93;1.50;;;11.30;99.90;;;;;;7284833;19;20250;-82
2024/04/16 10:55:10;;;;;;;7.20;1.40;;;11.60;99.90;;;;;;7284063;19;20185;-82
2024/04/16 10:57:41;;;;;;;6.77;1.47;;;11.70;99.90;;;;;;7284393;19;20186;-82
2024/04/16 11:00:09;;;;;;;9.83;1.60;;;12.00;99.90;;;;;;7283973;19;20713;-82
2024/04/16 11:02:35;;;;;;;6.77;1.13;;;12.70;99.90;;;;;;7283699;19;20654;-82
2024/04/16 11:05:00;;;;;;;7.07;1.30;;;14.00;99.90;;;;;;7283654;19;20197;-82
2024/04/16 11:07:26;;;;;;;6.83;1.30;;;14.10;99.90;;;;;;7288153;19;20188;-82
2024/04/16 11:09:52;;;;;;;6.20;1.10;;;14.10;99.90;;;;;;7312893;19;20694;-83
2024/04/16 11:12:18;;;;;;;7.73;1.33;;;15.00;99.90;;;;;;7290134;19;20177;-82
2024/04/16 11:14:44;;;;;;;5.27;1.07;;;15.80;99.90;;;;;;7290838;19;20189;-82
2024/04/16 11:17:10;;;;;;;7.17;1.00;;;15.50;99.90;;;;;;7289821;19;20531;-82
2024/04/16 11:19:37;;;;;;;10.00;1.40;;;14.80;99.90;;;;;;7292802;19;20182;-82
2024/04/16 11:22:03;;;;;;;9.67;1.47;;;14.70;99.90;;;;;;7291046;19;20181;-81
2024/04/16 11:24:29;;;;;;;5.13;1.17;;;14.50;99.90;;;;;;7290882;19;20192;-81
2024/04/16 11:26:55;;;;;;;9.43;1.40;;;14.20;99.90;;;;;;7290207;19;20184;-81
2024/04/16 11:29:21;;;;;;;8.60;1.43;;;14.00;99.90;;;;;;7312319;19;20189;-82
2024/04/16 11:31:47;;;;;;;10.00;1.40;;;14.00;99.90;;;;;;7291264;19;20188;-81
2024/04/16 11:34:13;;;;;;;6.77;1.30;;;13.90;99.90;;;;;;7289543;19;20239;-81
2024/04/16 11:36:48;;;;;;;7.67;1.20;;;13.20;99.90;;;;;;7290808;19;20189;-82
2024/04/16 11:39:14;;;;;;;8.80;1.60;;;12.60;99.90;;;;;;7290416;19;20196;-81
2024/04/16 11:41:40;;;;;;;8.53;1.50;;;12.40;99.90;;;;;;7289333;19;20222;-81
2024/04/16 11:44:06;;;;;;;6.40;1.70;;;12.30;99.90;;;;;;7289257;19;20203;-81
2024/04/16 11:46:32;;;;;;;6.57;1.53;;;12.00;99.90;;;;;;7289536;19;20274;-81
2024/04/16 11:48:58;;;;;;;7.30;1.23;;;12.10;99.90;;;;;;7289336;19;20596;-81
2024/04/16 11:51:23;;;;;;;6.13;1.37;;;12.30;99.90;;;;;;7301844;19;20207;-81
2024/04/16 11:53:49;;;;;;;4.70;1.10;;;12.80;99.90;;;;;;7308136;19;20186;-82
2024/04/16 11:56:15;;;;;;;7.00;1.30;;;12.80;99.90;;;;;;7288313;19;20189;-81
2024/04/16 11:58:41;;;;;;;8.97;1.13;;;13.10;99.90;;;;;;7291506;19;20204;-81
2024/04/16 12:01:08;;;;;;;8.67;1.60;;;13.00;99.90;;;;;;7289474;19;20198;-81
2024/04/16 12:03:34;;;;;;;6.00;1.50;;;12.80;99.90;;;;;;7286994;19;20216;-81
2024/04/16 12:05:59;;;;;;;8.23;1.20;;;12.40;99.90;;;;;;7289610;19;20874;-81
2024/04/16 12:08:25;;;;;;;4.03;1.10;;;12.60;99.90;;;;;;7289615;19;20278;-80
2024/04/16 12:10:51;;;;;;;5.20;1.27;;;12.40;99.90;;;;;;7310726;19;20585;-81
2024/04/16 12:13:17;;;;;;;4.43;1.10;;;12.80;99.90;;;;;;7288288;19;20202;-82
2024/04/16 12:15:42;;;;;;;7.10;1.10;;;14.00;99.90;;;;;;7288362;19;20197;-81
2024/04/16 12:18:08;;;;;;;4.03;0.80;;;14.50;99.90;;;;;;7287881;19;20194;-81
2024/04/16 12:20:34;;;;;;;2.83;0.50;;;12.80;99.90;;;;;;7287410;19;20642;-80
2024/04/16 12:23:00;;;;;;;3.53;0.60;;;11.80;99.90;;;;;;7288506;19;20571;-80
2024/04/16 12:25:26;;;;;;;3.80;0.60;;;11.30;99.90;;;;;;7287385;19;20199;-80
2024/04/16 12:27:52;;;;;;;3.57;0.60;;;11.00;99.90;;;;;;7308684;19;20245;-80
2024/04/16 12:30:18;;;;;;;4.00;0.60;;;11.00;99.90;;;;;;7288886;19;20192;-80
2024/04/16 12:32:44;;;;;;;4.93;0.87;;;11.00;99.90;;;;;;7287177;19;20183;-80
2024/04/16 12:35:10;;;;;;;6.30;0.90;;;11.10;99.90;;;;;;7286430;19;20246;-81
2024/04/16 12:37:35;;;;;;;6.80;1.00;;;11.20;99.90;;;;;;7289257;19;20207;-80
2024/04/16 12:40:01;;;;;;;5.80;1.30;;;11.50;99.90;;;;;;7287269;19;20720;-80
2024/04/16 12:42:27;;;;;;;5.43;1.10;;;11.80;99.90;;;;;;7288769;19;20183;-80
2024/04/16 12:44:53;;;;;;;6.13;1.20;;;11.90;99.90;;;;;;7310718;19;20558;-81
2024/04/16 12:47:19;;;;;;;3.57;0.80;;;12.10;99.90;;;;;;7288458;19;20217;-80